sensor_id;sensor_type;location;lat;lon;timestamp;P1;durP1;ratioP1;P2;durP2;ratioP2
35909;SDS011;22004;49.120;-0.200;2022-09-01T00:00:19;9.07;;;2.17;;
35909;SDS011;22004;49.120;-0.200;2022-09-01T00:02:46;6.10;;;2.13;;
35909;SDS011;22004;49.120;-0.200;2022-09-01T00:05:12;8.25;;;2.25;;
35909;SDS011;22004;49.120;-0.200;2022-09-01T00:07:37;7.18;;;2.00;;
35909;SDS011;22004;49.120;-0.200;2022-09-01T00:10:04;7.43;;;2.00;;
35909;SDS011;22004;49.120;-0.200;2022-09-01T00:12:31;6.85;;;1.80;;
35909;SDS011;22004;49.120;-0.200;2022-09-01T00:14:57;5.60;;;1.98;;
35909;SDS011;22004;49.120;-0.200;2022-09-01T00:17:23;9.10;;;1.80;;
35909;SDS011;22004;49.120;-0.200;2022-09-01T00:19:49;8.88;;;2.30;;
35909;SDS011;22004;49.120;-0.200;2022-09-01T00:22:14;9.20;;;2.60;;
35909;SDS011;22004;49.120;-0.200;2022-09-01T00:24:40;5.95;;;1.60;;
35909;SDS011;22004;49.120;-0.200;2022-09-01T00:27:05;5.53;;;1.83;;
35909;SDS011;22004;49.120;-0.200;2022-09-01T00:29:30;5.40;;;2.05;;
35909;SDS011;22004;49.120;-0.200;2022-09-01T00:31:56;3.72;;;1.73;;
35909;SDS011;22004;49.120;-0.200;2022-09-01T00:34:21;7.95;;;2.00;;
35909;SDS011;22004;49.120;-0.200;2022-09-01T00:36:47;7.45;;;2.20;;
35909;SDS011;22004;49.120;-0.200;2022-09-01T00:39:13;5.75;;;1.77;;
35909;SDS011;22004;49.120;-0.200;2022-09-01T00:41:39;6.05;;;2.03;;
35909;SDS011;22004;49.120;-0.200;2022-09-01T00:44:10;2.97;;;2.10;;
35909;SDS011;22004;49.120;-0.200;2022-09-01T00:46:38;6.57;;;1.88;;
35909;SDS011;22004;49.120;-0.200;2022-09-01T00:51:46;5.88;;;2.08;;
35909;SDS011;22004;49.120;-0.200;2022-09-01T00:54:19;8.82;;;2.00;;
35909;SDS011;22004;49.120;-0.200;2022-09-01T00:56:48;5.53;;;1.90;;
35909;SDS011;22004;49.120;-0.200;2022-09-01T00:59:14;7.53;;;2.00;;
35909;SDS011;22004;49.120;-0.200;2022-09-01T01:01:41;4.57;;;1.60;;
35909;SDS011;22004;49.120;-0.200;2022-09-01T01:04:07;8.00;;;2.20;;
35909;SDS011;22004;49.120;-0.200;2022-09-01T01:06:48;6.35;;;1.67;;
35909;SDS011;22004;49.120;-0.200;2022-09-01T01:09:22;13.52;;;2.63;;
35909;SDS011;22004;49.120;-0.200;2022-09-01T01:11:50;6.80;;;2.00;;
35909;SDS011;22004;49.120;-0.200;2022-09-01T01:14:16;6.50;;;2.25;;
35909;SDS011;22004;49.120;-0.200;2022-09-01T01:16:44;5.00;;;1.90;;
35909;SDS011;22004;49.120;-0.200;2022-09-01T01:19:15;4.82;;;1.73;;
35909;SDS011;22004;49.120;-0.200;2022-09-01T01:22:23;6.10;;;2.15;;
35909;SDS011;22004;49.120;-0.200;2022-09-01T01:25:23;6.15;;;1.95;;
35909;SDS011;22004;49.120;-0.200;2022-09-01T01:27:49;6.55;;;1.85;;
35909;SDS011;22004;49.120;-0.200;2022-09-01T01:30:15;5.57;;;1.90;;
35909;SDS011;22004;49.120;-0.200;2022-09-01T01:32:43;4.50;;;1.77;;
35909;SDS011;22004;49.120;-0.200;2022-09-01T01:35:10;6.25;;;1.83;;
35909;SDS011;22004;49.120;-0.200;2022-09-01T01:37:43;5.68;;;1.98;;
35909;SDS011;22004;49.120;-0.200;2022-09-01T01:40:13;7.57;;;1.95;;
35909;SDS011;22004;49.120;-0.200;2022-09-01T01:42:44;5.95;;;2.13;;
35909;SDS011;22004;49.120;-0.200;2022-09-01T01:45:13;4.95;;;1.67;;
35909;SDS011;22004;49.120;-0.200;2022-09-01T01:47:44;6.60;;;2.03;;
35909;SDS011;22004;49.120;-0.200;2022-09-01T01:50:12;3.40;;;1.60;;
35909;SDS011;22004;49.120;-0.200;2022-09-01T01:52:38;5.68;;;1.90;;
35909;SDS011;22004;49.120;-0.200;2022-09-01T01:55:04;5.05;;;1.75;;
35909;SDS011;22004;49.120;-0.200;2022-09-01T01:57:34;3.17;;;1.60;;
35909;SDS011;22004;49.120;-0.200;2022-09-01T02:00:01;7.43;;;2.22;;
35909;SDS011;22004;49.120;-0.200;2022-09-01T02:02:27;4.03;;;1.88;;
35909;SDS011;22004;49.120;-0.200;2022-09-01T02:04:52;6.30;;;1.90;;
35909;SDS011;22004;49.120;-0.200;2022-09-01T02:07:18;7.18;;;1.85;;
35909;SDS011;22004;49.120;-0.200;2022-09-01T02:09:44;5.22;;;1.75;;
35909;SDS011;22004;49.120;-0.200;2022-09-01T02:12:12;5.38;;;1.95;;
35909;SDS011;22004;49.120;-0.200;2022-09-01T02:14:37;7.90;;;1.80;;
35909;SDS011;22004;49.120;-0.200;2022-09-01T02:17:03;6.65;;;1.90;;
35909;SDS011;22004;49.120;-0.200;2022-09-01T02:19:31;4.00;;;1.83;;
35909;SDS011;22004;49.120;-0.200;2022-09-01T02:21:57;6.18;;;1.70;;
35909;SDS011;22004;49.120;-0.200;2022-09-01T02:24:24;4.97;;;2.20;;
35909;SDS011;22004;49.120;-0.200;2022-09-01T02:26:50;6.53;;;1.98;;
35909;SDS011;22004;49.120;-0.200;2022-09-01T02:29:18;4.60;;;1.63;;
35909;SDS011;22004;49.120;-0.200;2022-09-01T02:31:51;6.70;;;2.10;;
35909;SDS011;22004;49.120;-0.200;2022-09-01T02:34:17;4.43;;;2.25;;
35909;SDS011;22004;49.120;-0.200;2022-09-01T02:36:47;5.45;;;1.83;;
35909;SDS011;22004;49.120;-0.200;2022-09-01T02:39:15;4.57;;;1.80;;
35909;SDS011;22004;49.120;-0.200;2022-09-01T02:41:42;6.18;;;1.95;;
35909;SDS011;22004;49.120;-0.200;2022-09-01T02:44:08;4.82;;;1.70;;
35909;SDS011;22004;49.120;-0.200;2022-09-01T02:46:39;4.40;;;1.83;;
35909;SDS011;22004;49.120;-0.200;2022-09-01T02:49:09;3.83;;;1.75;;
35909;SDS011;22004;49.120;-0.200;2022-09-01T02:51:49;4.20;;;1.90;;
35909;SDS011;22004;49.120;-0.200;2022-09-01T02:54:19;4.88;;;1.98;;
35909;SDS011;22004;49.120;-0.200;2022-09-01T02:56:46;7.90;;;2.20;;
35909;SDS011;22004;49.120;-0.200;2022-09-01T02:59:18;4.70;;;1.60;;
35909;SDS011;22004;49.120;-0.200;2022-09-01T03:01:45;4.38;;;1.85;;
35909;SDS011;22004;49.120;-0.200;2022-09-01T03:04:12;8.95;;;1.88;;
35909;SDS011;22004;49.120;-0.200;2022-09-01T03:06:38;5.90;;;1.98;;
35909;SDS011;22004;49.120;-0.200;2022-09-01T03:09:05;4.28;;;1.48;;
35909;SDS011;22004;49.120;-0.200;2022-09-01T03:11:34;3.80;;;1.58;;
35909;SDS011;22004;49.120;-0.200;2022-09-01T03:14:00;7.47;;;1.92;;
35909;SDS011;22004;49.120;-0.200;2022-09-01T03:16:27;3.17;;;1.58;;
35909;SDS011;22004;49.120;-0.200;2022-09-01T03:18:54;4.70;;;1.85;;
35909;SDS011;22004;49.120;-0.200;2022-09-01T03:21:20;4.93;;;2.05;;
35909;SDS011;22004;49.120;-0.200;2022-09-01T03:23:49;6.40;;;2.15;;
35909;SDS011;22004;49.120;-0.200;2022-09-01T03:26:17;5.32;;;1.83;;
35909;SDS011;22004;49.120;-0.200;2022-09-01T03:28:46;8.48;;;1.77;;
35909;SDS011;22004;49.120;-0.200;2022-09-01T03:31:12;3.15;;;1.55;;
35909;SDS011;22004;49.120;-0.200;2022-09-01T03:33:38;3.72;;;1.67;;
35909;SDS011;22004;49.120;-0.200;2022-09-01T03:36:04;4.75;;;1.73;;
35909;SDS011;22004;49.120;-0.200;2022-09-01T03:38:30;3.88;;;1.60;;
35909;SDS011;22004;49.120;-0.200;2022-09-01T03:41:00;4.03;;;1.60;;
35909;SDS011;22004;49.120;-0.200;2022-09-01T03:43:27;3.22;;;1.63;;
35909;SDS011;22004;49.120;-0.200;2022-09-01T03:45:54;4.75;;;1.60;;
35909;SDS011;22004;49.120;-0.200;2022-09-01T03:48:24;5.78;;;1.77;;
35909;SDS011;22004;49.120;-0.200;2022-09-01T03:50:53;6.93;;;2.00;;
35909;SDS011;22004;49.120;-0.200;2022-09-01T03:53:21;4.25;;;2.00;;
35909;SDS011;22004;49.120;-0.200;2022-09-01T03:55:51;4.13;;;2.03;;
35909;SDS011;22004;49.120;-0.200;2022-09-01T03:58:18;6.65;;;1.95;;
35909;SDS011;22004;49.120;-0.200;2022-09-01T04:00:48;4.88;;;1.73;;
35909;SDS011;22004;49.120;-0.200;2022-09-01T04:03:19;8.07;;;1.93;;
35909;SDS011;22004;49.120;-0.200;2022-09-01T04:05:50;7.43;;;2.08;;
35909;SDS011;22004;49.120;-0.200;2022-09-01T04:08:17;5.35;;;1.73;;
35909;SDS011;22004;49.120;-0.200;2022-09-01T04:10:53;6.15;;;2.10;;
35909;SDS011;22004;49.120;-0.200;2022-09-01T04:13:22;7.43;;;2.03;;
35909;SDS011;22004;49.120;-0.200;2022-09-01T04:15:54;8.55;;;2.00;;
35909;SDS011;22004;49.120;-0.200;2022-09-01T04:18:20;8.02;;;2.20;;
35909;SDS011;22004;49.120;-0.200;2022-09-01T04:20:47;4.45;;;1.77;;
35909;SDS011;22004;49.120;-0.200;2022-09-01T04:23:18;5.30;;;1.75;;
35909;SDS011;22004;49.120;-0.200;2022-09-01T04:25:54;5.47;;;1.83;;
35909;SDS011;22004;49.120;-0.200;2022-09-01T04:28:25;8.85;;;1.85;;
35909;SDS011;22004;49.120;-0.200;2022-09-01T04:30:58;5.65;;;2.10;;
35909;SDS011;22004;49.120;-0.200;2022-09-01T04:33:27;6.40;;;2.60;;
35909;SDS011;22004;49.120;-0.200;2022-09-01T04:36:05;6.10;;;2.17;;
35909;SDS011;22004;49.120;-0.200;2022-09-01T04:38:37;4.82;;;1.85;;
35909;SDS011;22004;49.120;-0.200;2022-09-01T04:41:03;6.95;;;2.83;;
35909;SDS011;22004;49.120;-0.200;2022-09-01T04:43:30;9.93;;;2.05;;
35909;SDS011;22004;49.120;-0.200;2022-09-01T04:45:56;5.20;;;1.70;;
35909;SDS011;22004;49.120;-0.200;2022-09-01T04:48:23;6.22;;;1.80;;
35909;SDS011;22004;49.120;-0.200;2022-09-01T04:50:49;3.25;;;1.38;;
35909;SDS011;22004;49.120;-0.200;2022-09-01T04:53:16;4.75;;;2.22;;
35909;SDS011;22004;49.120;-0.200;2022-09-01T04:55:42;6.20;;;1.77;;
35909;SDS011;22004;49.120;-0.200;2022-09-01T04:58:08;5.70;;;2.13;;
35909;SDS011;22004;49.120;-0.200;2022-09-01T05:00:38;4.95;;;2.10;;
35909;SDS011;22004;49.120;-0.200;2022-09-01T05:03:04;4.60;;;1.90;;
35909;SDS011;22004;49.120;-0.200;2022-09-01T05:05:38;4.07;;;1.58;;
35909;SDS011;22004;49.120;-0.200;2022-09-01T05:08:07;6.30;;;2.20;;
35909;SDS011;22004;49.120;-0.200;2022-09-01T05:10:38;4.15;;;1.95;;
35909;SDS011;22004;49.120;-0.200;2022-09-01T05:13:07;5.90;;;1.75;;
35909;SDS011;22004;49.120;-0.200;2022-09-01T05:15:37;7.15;;;1.75;;
35909;SDS011;22004;49.120;-0.200;2022-09-01T05:18:04;4.72;;;1.92;;
35909;SDS011;22004;49.120;-0.200;2022-09-01T05:20:37;5.45;;;1.98;;
35909;SDS011;22004;49.120;-0.200;2022-09-01T05:23:05;5.43;;;1.90;;
35909;SDS011;22004;49.120;-0.200;2022-09-01T05:25:36;8.55;;;1.88;;
35909;SDS011;22004;49.120;-0.200;2022-09-01T05:28:03;10.18;;;1.95;;
35909;SDS011;22004;49.120;-0.200;2022-09-01T05:30:28;4.18;;;1.70;;
35909;SDS011;22004;49.120;-0.200;2022-09-01T05:32:53;4.90;;;2.13;;
35909;SDS011;22004;49.120;-0.200;2022-09-01T05:35:19;4.53;;;1.70;;
35909;SDS011;22004;49.120;-0.200;2022-09-01T05:37:44;3.70;;;1.50;;
35909;SDS011;22004;49.120;-0.200;2022-09-01T05:40:10;9.80;;;2.25;;
35909;SDS011;22004;49.120;-0.200;2022-09-01T05:42:40;7.22;;;2.00;;
35909;SDS011;22004;49.120;-0.200;2022-09-01T05:45:09;6.65;;;2.25;;
35909;SDS011;22004;49.120;-0.200;2022-09-01T05:47:36;5.70;;;1.98;;
35909;SDS011;22004;49.120;-0.200;2022-09-01T05:50:05;2.90;;;1.52;;
35909;SDS011;22004;49.120;-0.200;2022-09-01T05:52:35;6.88;;;1.98;;
35909;SDS011;22004;49.120;-0.200;2022-09-01T05:55:02;4.15;;;1.75;;
35909;SDS011;22004;49.120;-0.200;2022-09-01T05:57:28;5.20;;;1.92;;
35909;SDS011;22004;49.120;-0.200;2022-09-01T05:59:59;4.45;;;2.17;;
35909;SDS011;22004;49.120;-0.200;2022-09-01T06:02:26;3.92;;;1.67;;
35909;SDS011;22004;49.120;-0.200;2022-09-01T06:04:52;9.95;;;2.28;;
35909;SDS011;22004;49.120;-0.200;2022-09-01T06:07:21;6.57;;;1.92;;
35909;SDS011;22004;49.120;-0.200;2022-09-01T06:09:47;7.50;;;2.03;;
35909;SDS011;22004;49.120;-0.200;2022-09-01T06:12:13;4.15;;;1.73;;
35909;SDS011;22004;49.120;-0.200;2022-09-01T06:14:49;3.50;;;1.83;;
35909;SDS011;22004;49.120;-0.200;2022-09-01T06:17:20;5.80;;;2.50;;
35909;SDS011;22004;49.120;-0.200;2022-09-01T06:19:49;8.20;;;2.20;;
35909;SDS011;22004;49.120;-0.200;2022-09-01T06:22:16;5.25;;;2.20;;
35909;SDS011;22004;49.120;-0.200;2022-09-01T06:24:44;4.25;;;1.92;;
35909;SDS011;22004;49.120;-0.200;2022-09-01T06:27:12;6.28;;;1.77;;
35909;SDS011;22004;49.120;-0.200;2022-09-01T06:29:44;8.80;;;2.20;;
35909;SDS011;22004;49.120;-0.200;2022-09-01T06:32:11;4.93;;;2.08;;
35909;SDS011;22004;49.120;-0.200;2022-09-01T06:34:38;8.48;;;2.35;;
35909;SDS011;22004;49.120;-0.200;2022-09-01T06:37:06;5.38;;;2.08;;
35909;SDS011;22004;49.120;-0.200;2022-09-01T06:39:32;3.97;;;1.83;;
35909;SDS011;22004;49.120;-0.200;2022-09-01T06:41:58;7.43;;;2.30;;
35909;SDS011;22004;49.120;-0.200;2022-09-01T06:44:26;8.48;;;2.50;;
35909;SDS011;22004;49.120;-0.200;2022-09-01T06:46:54;8.35;;;2.42;;
35909;SDS011;22004;49.120;-0.200;2022-09-01T06:49:21;5.32;;;2.38;;
35909;SDS011;22004;49.120;-0.200;2022-09-01T06:51:57;6.38;;;2.00;;
35909;SDS011;22004;49.120;-0.200;2022-09-01T06:54:23;5.35;;;1.75;;
35909;SDS011;22004;49.120;-0.200;2022-09-01T06:56:49;7.65;;;2.45;;
35909;SDS011;22004;49.120;-0.200;2022-09-01T06:59:15;9.48;;;2.60;;
35909;SDS011;22004;49.120;-0.200;2022-09-01T07:01:40;8.38;;;2.45;;
35909;SDS011;22004;49.120;-0.200;2022-09-01T07:04:06;6.53;;;2.15;;
35909;SDS011;22004;49.120;-0.200;2022-09-01T07:06:31;10.35;;;2.30;;
35909;SDS011;22004;49.120;-0.200;2022-09-01T07:08:59;6.15;;;2.63;;
35909;SDS011;22004;49.120;-0.200;2022-09-01T07:11:26;6.13;;;2.38;;
35909;SDS011;22004;49.120;-0.200;2022-09-01T07:13:54;18.55;;;4.57;;
35909;SDS011;22004;49.120;-0.200;2022-09-01T07:16:22;5.90;;;2.30;;
35909;SDS011;22004;49.120;-0.200;2022-09-01T07:18:51;8.93;;;2.75;;
35909;SDS011;22004;49.120;-0.200;2022-09-01T07:21:20;7.18;;;2.80;;
35909;SDS011;22004;49.120;-0.200;2022-09-01T07:23:45;15.23;;;3.58;;
35909;SDS011;22004;49.120;-0.200;2022-09-01T07:26:11;12.00;;;2.40;;
35909;SDS011;22004;49.120;-0.200;2022-09-01T07:28:42;5.38;;;2.30;;
35909;SDS011;22004;49.120;-0.200;2022-09-01T07:31:15;12.02;;;3.03;;
35909;SDS011;22004;49.120;-0.200;2022-09-01T07:33:45;12.05;;;2.75;;
35909;SDS011;22004;49.120;-0.200;2022-09-01T07:36:13;9.25;;;2.72;;
35909;SDS011;22004;49.120;-0.200;2022-09-01T07:38:39;15.00;;;3.55;;
35909;SDS011;22004;49.120;-0.200;2022-09-01T07:41:04;8.23;;;2.38;;
35909;SDS011;22004;49.120;-0.200;2022-09-01T07:43:30;13.35;;;3.58;;
35909;SDS011;22004;49.120;-0.200;2022-09-01T07:45:58;6.38;;;2.42;;
35909;SDS011;22004;49.120;-0.200;2022-09-01T07:48:24;20.08;;;4.70;;
35909;SDS011;22004;49.120;-0.200;2022-09-01T07:50:53;8.65;;;2.47;;
35909;SDS011;22004;49.120;-0.200;2022-09-01T07:53:25;7.75;;;2.67;;
35909;SDS011;22004;49.120;-0.200;2022-09-01T07:55:55;6.20;;;3.00;;
35909;SDS011;22004;49.120;-0.200;2022-09-01T07:58:23;8.18;;;2.80;;
35909;SDS011;22004;49.120;-0.200;2022-09-01T08:00:50;9.90;;;2.83;;
35909;SDS011;22004;49.120;-0.200;2022-09-01T08:03:18;9.07;;;2.65;;
35909;SDS011;22004;49.120;-0.200;2022-09-01T08:05:45;9.00;;;2.55;;
35909;SDS011;22004;49.120;-0.200;2022-09-01T08:08:13;9.38;;;3.05;;
35909;SDS011;22004;49.120;-0.200;2022-09-01T08:10:39;22.88;;;3.92;;
35909;SDS011;22004;49.120;-0.200;2022-09-01T08:13:05;12.88;;;2.97;;
35909;SDS011;22004;49.120;-0.200;2022-09-01T08:15:32;9.43;;;2.90;;
35909;SDS011;22004;49.120;-0.200;2022-09-01T08:17:57;10.85;;;3.35;;
35909;SDS011;22004;49.120;-0.200;2022-09-01T08:20:22;9.43;;;2.67;;
35909;SDS011;22004;49.120;-0.200;2022-09-01T08:22:49;6.57;;;2.67;;
35909;SDS011;22004;49.120;-0.200;2022-09-01T08:25:14;16.60;;;4.03;;
35909;SDS011;22004;49.120;-0.200;2022-09-01T08:27:40;6.63;;;2.78;;
35909;SDS011;22004;49.120;-0.200;2022-09-01T08:30:07;8.60;;;2.90;;
35909;SDS011;22004;49.120;-0.200;2022-09-01T08:32:35;9.75;;;2.40;;
35909;SDS011;22004;49.120;-0.200;2022-09-01T08:35:01;8.15;;;2.63;;
35909;SDS011;22004;49.120;-0.200;2022-09-01T08:37:28;6.90;;;2.55;;
35909;SDS011;22004;49.120;-0.200;2022-09-01T08:39:55;9.77;;;2.80;;
35909;SDS011;22004;49.120;-0.200;2022-09-01T08:47:32;5.93;;;2.30;;
35909;SDS011;22004;49.120;-0.200;2022-09-01T08:49:57;13.25;;;2.95;;
35909;SDS011;22004;49.120;-0.200;2022-09-01T08:57:51;13.40;;;3.22;;
35909;SDS011;22004;49.120;-0.200;2022-09-01T09:00:25;8.27;;;2.95;;
35909;SDS011;22004;49.120;-0.200;2022-09-01T09:05:34;10.85;;;3.35;;
35909;SDS011;22004;49.120;-0.200;2022-09-01T09:16:49;12.75;;;4.32;;
35909;SDS011;22004;49.120;-0.200;2022-09-01T09:19:23;15.40;;;4.30;;
35909;SDS011;22004;49.120;-0.200;2022-09-01T09:22:16;10.40;;;3.15;;
35909;SDS011;22004;49.120;-0.200;2022-09-01T09:29:54;11.70;;;4.05;;
35909;SDS011;22004;49.120;-0.200;2022-09-01T09:32:40;9.80;;;3.22;;
35909;SDS011;22004;49.120;-0.200;2022-09-01T09:37:49;12.30;;;3.58;;
35909;SDS011;22004;49.120;-0.200;2022-09-01T09:40:16;17.02;;;3.38;;
35909;SDS011;22004;49.120;-0.200;2022-09-01T09:47:45;9.40;;;3.00;;
35909;SDS011;22004;49.120;-0.200;2022-09-01T09:50:22;7.82;;;2.90;;
35909;SDS011;22004;49.120;-0.200;2022-09-01T09:58:19;9.30;;;2.70;;
35909;SDS011;22004;49.120;-0.200;2022-09-01T10:01:01;14.93;;;3.97;;
35909;SDS011;22004;49.120;-0.200;2022-09-01T10:03:40;7.95;;;3.28;;
35909;SDS011;22004;49.120;-0.200;2022-09-01T10:06:08;6.95;;;3.00;;
35909;SDS011;22004;49.120;-0.200;2022-09-01T10:08:38;12.50;;;3.20;;
35909;SDS011;22004;49.120;-0.200;2022-09-01T10:11:08;9.48;;;3.17;;
35909;SDS011;22004;49.120;-0.200;2022-09-01T10:13:36;11.82;;;3.47;;
35909;SDS011;22004;49.120;-0.200;2022-09-01T10:16:02;9.52;;;2.85;;
35909;SDS011;22004;49.120;-0.200;2022-09-01T10:18:41;10.23;;;2.75;;
35909;SDS011;22004;49.120;-0.200;2022-09-01T10:21:14;7.47;;;3.20;;
35909;SDS011;22004;49.120;-0.200;2022-09-01T10:23:46;11.15;;;3.92;;
35909;SDS011;22004;49.120;-0.200;2022-09-01T10:26:16;10.82;;;3.03;;
35909;SDS011;22004;49.120;-0.200;2022-09-01T10:28:57;11.68;;;4.20;;
35909;SDS011;22004;49.120;-0.200;2022-09-01T10:31:43;10.25;;;3.38;;
35909;SDS011;22004;49.120;-0.200;2022-09-01T10:34:10;15.55;;;4.18;;
35909;SDS011;22004;49.120;-0.200;2022-09-01T10:36:42;13.50;;;3.65;;
35909;SDS011;22004;49.120;-0.200;2022-09-01T10:39:11;5.60;;;3.28;;
35909;SDS011;22004;49.120;-0.200;2022-09-01T10:44:09;8.52;;;3.15;;
35909;SDS011;22004;49.120;-0.200;2022-09-01T10:46:43;10.55;;;3.50;;
35909;SDS011;22004;49.120;-0.200;2022-09-01T10:49:20;13.45;;;4.10;;
35909;SDS011;22004;49.120;-0.200;2022-09-01T10:51:52;10.43;;;2.95;;
35909;SDS011;22004;49.120;-0.200;2022-09-01T10:59:42;8.65;;;3.28;;
35909;SDS011;22004;49.120;-0.200;2022-09-01T11:02:09;8.27;;;3.47;;
35909;SDS011;22004;49.120;-0.200;2022-09-01T11:07:04;11.57;;;4.15;;
35909;SDS011;22004;49.120;-0.200;2022-09-01T11:17:35;11.32;;;5.57;;
35909;SDS011;22004;49.120;-0.200;2022-09-01T11:20:09;8.85;;;3.80;;
35909;SDS011;22004;49.120;-0.200;2022-09-01T11:30:39;14.25;;;6.35;;
35909;SDS011;22004;49.120;-0.200;2022-09-01T11:35:41;9.98;;;4.75;;
35909;SDS011;22004;49.120;-0.200;2022-09-01T11:38:09;16.17;;;5.90;;
35909;SDS011;22004;49.120;-0.200;2022-09-01T11:40:38;12.30;;;5.43;;
35909;SDS011;22004;49.120;-0.200;2022-09-01T11:43:06;13.73;;;5.07;;
35909;SDS011;22004;49.120;-0.200;2022-09-01T11:45:36;11.25;;;3.80;;
35909;SDS011;22004;49.120;-0.200;2022-09-01T11:48:14;21.10;;;5.82;;
35909;SDS011;22004;49.120;-0.200;2022-09-01T11:50:41;12.77;;;5.55;;
35909;SDS011;22004;49.120;-0.200;2022-09-01T11:55:37;10.13;;;4.28;;
35909;SDS011;22004;49.120;-0.200;2022-09-01T11:58:05;22.70;;;5.50;;
35909;SDS011;22004;49.120;-0.200;2022-09-01T12:00:39;15.82;;;4.70;;
35909;SDS011;22004;49.120;-0.200;2022-09-01T12:06:05;13.80;;;4.40;;
35909;SDS011;22004;49.120;-0.200;2022-09-01T12:08:39;18.45;;;6.00;;
35909;SDS011;22004;49.120;-0.200;2022-09-01T12:11:08;12.18;;;5.85;;
35909;SDS011;22004;49.120;-0.200;2022-09-01T12:13:36;18.42;;;6.13;;
35909;SDS011;22004;49.120;-0.200;2022-09-01T12:16:05;13.07;;;5.78;;
35909;SDS011;22004;49.120;-0.200;2022-09-01T12:18:33;16.38;;;6.05;;
35909;SDS011;22004;49.120;-0.200;2022-09-01T12:21:05;18.58;;;5.82;;
35909;SDS011;22004;49.120;-0.200;2022-09-01T12:23:35;15.65;;;5.72;;
35909;SDS011;22004;49.120;-0.200;2022-09-01T12:26:06;13.10;;;5.15;;
35909;SDS011;22004;49.120;-0.200;2022-09-01T12:28:34;15.43;;;5.55;;
35909;SDS011;22004;49.120;-0.200;2022-09-01T12:31:04;21.00;;;6.82;;
35909;SDS011;22004;49.120;-0.200;2022-09-01T12:33:32;26.27;;;6.20;;
35909;SDS011;22004;49.120;-0.200;2022-09-01T12:38:48;34.85;;;6.65;;
35909;SDS011;22004;49.120;-0.200;2022-09-01T12:41:34;9.75;;;4.13;;
35909;SDS011;22004;49.120;-0.200;2022-09-01T12:46:55;17.55;;;5.65;;
35909;SDS011;22004;49.120;-0.200;2022-09-01T12:49:23;17.20;;;6.18;;
35909;SDS011;22004;49.120;-0.200;2022-09-01T12:52:13;13.00;;;5.03;;
35909;SDS011;22004;49.120;-0.200;2022-09-01T12:54:49;14.10;;;5.82;;
35909;SDS011;22004;49.120;-0.200;2022-09-01T13:00:04;24.60;;;6.40;;
35909;SDS011;22004;49.120;-0.200;2022-09-01T13:02:34;12.88;;;5.50;;
35909;SDS011;22004;49.120;-0.200;2022-09-01T13:07:45;14.25;;;5.95;;
35909;SDS011;22004;49.120;-0.200;2022-09-01T13:10:11;24.15;;;7.28;;
35909;SDS011;22004;49.120;-0.200;2022-09-01T13:12:43;17.17;;;6.40;;
35909;SDS011;22004;49.120;-0.200;2022-09-01T13:15:10;14.02;;;6.00;;
35909;SDS011;22004;49.120;-0.200;2022-09-01T13:17:36;22.63;;;5.90;;
35909;SDS011;22004;49.120;-0.200;2022-09-01T13:20:05;14.45;;;6.05;;
35909;SDS011;22004;49.120;-0.200;2022-09-01T13:22:32;20.02;;;6.15;;
35909;SDS011;22004;49.120;-0.200;2022-09-01T13:24:58;14.10;;;5.90;;
35909;SDS011;22004;49.120;-0.200;2022-09-01T13:27:24;16.98;;;6.20;;
35909;SDS011;22004;49.120;-0.200;2022-09-01T13:29:49;18.67;;;6.35;;
35909;SDS011;22004;49.120;-0.200;2022-09-01T13:32:15;12.93;;;5.30;;
35909;SDS011;22004;49.120;-0.200;2022-09-01T13:34:42;12.82;;;4.47;;
35909;SDS011;22004;49.120;-0.200;2022-09-01T13:37:08;13.40;;;5.53;;
35909;SDS011;22004;49.120;-0.200;2022-09-01T13:39:33;14.15;;;5.22;;
35909;SDS011;22004;49.120;-0.200;2022-09-01T13:41:58;17.55;;;5.30;;
35909;SDS011;22004;49.120;-0.200;2022-09-01T13:44:24;13.95;;;5.65;;
35909;SDS011;22004;49.120;-0.200;2022-09-01T13:46:49;14.40;;;5.20;;
35909;SDS011;22004;49.120;-0.200;2022-09-01T13:49:14;14.43;;;5.88;;
35909;SDS011;22004;49.120;-0.200;2022-09-01T13:51:40;17.40;;;5.80;;
35909;SDS011;22004;49.120;-0.200;2022-09-01T13:54:05;12.65;;;5.28;;
35909;SDS011;22004;49.120;-0.200;2022-09-01T13:56:31;11.93;;;4.97;;
35909;SDS011;22004;49.120;-0.200;2022-09-01T13:58:56;16.65;;;5.72;;
35909;SDS011;22004;49.120;-0.200;2022-09-01T14:01:22;18.60;;;6.15;;
35909;SDS011;22004;49.120;-0.200;2022-09-01T14:03:48;9.75;;;4.80;;
35909;SDS011;22004;49.120;-0.200;2022-09-01T14:06:14;9.65;;;4.57;;
35909;SDS011;22004;49.120;-0.200;2022-09-01T14:08:40;14.02;;;5.13;;
35909;SDS011;22004;49.120;-0.200;2022-09-01T14:11:05;14.73;;;5.03;;
35909;SDS011;22004;49.120;-0.200;2022-09-01T14:13:32;12.50;;;4.65;;
35909;SDS011;22004;49.120;-0.200;2022-09-01T14:15:58;12.57;;;5.60;;
35909;SDS011;22004;49.120;-0.200;2022-09-01T14:18:24;8.70;;;4.70;;
35909;SDS011;22004;49.120;-0.200;2022-09-01T14:21:01;9.77;;;5.32;;
35909;SDS011;22004;49.120;-0.200;2022-09-01T14:23:26;9.30;;;5.20;;
35909;SDS011;22004;49.120;-0.200;2022-09-01T14:25:52;16.90;;;5.72;;
35909;SDS011;22004;49.120;-0.200;2022-09-01T14:28:18;7.50;;;4.47;;
35909;SDS011;22004;49.120;-0.200;2022-09-01T14:30:46;11.80;;;5.68;;
35909;SDS011;22004;49.120;-0.200;2022-09-01T14:33:13;13.85;;;5.50;;
35909;SDS011;22004;49.120;-0.200;2022-09-01T14:35:40;10.48;;;5.22;;
35909;SDS011;22004;49.120;-0.200;2022-09-01T14:38:07;13.15;;;5.40;;
35909;SDS011;22004;49.120;-0.200;2022-09-01T14:40:37;10.65;;;5.40;;
35909;SDS011;22004;49.120;-0.200;2022-09-01T14:43:06;10.55;;;5.40;;
35909;SDS011;22004;49.120;-0.200;2022-09-01T14:45:34;13.95;;;5.45;;
35909;SDS011;22004;49.120;-0.200;2022-09-01T14:48:01;12.50;;;5.30;;
35909;SDS011;22004;49.120;-0.200;2022-09-01T14:50:27;13.80;;;5.15;;
35909;SDS011;22004;49.120;-0.200;2022-09-01T14:52:56;11.10;;;5.93;;
35909;SDS011;22004;49.120;-0.200;2022-09-01T14:55:25;9.18;;;5.50;;
35909;SDS011;22004;49.120;-0.200;2022-09-01T14:57:52;11.02;;;5.13;;
35909;SDS011;22004;49.120;-0.200;2022-09-01T15:00:19;13.43;;;5.65;;
35909;SDS011;22004;49.120;-0.200;2022-09-01T15:02:45;14.68;;;5.78;;
35909;SDS011;22004;49.120;-0.200;2022-09-01T15:05:11;18.02;;;5.75;;
35909;SDS011;22004;49.120;-0.200;2022-09-01T15:07:37;13.68;;;5.70;;
35909;SDS011;22004;49.120;-0.200;2022-09-01T15:10:03;10.60;;;5.30;;
35909;SDS011;22004;49.120;-0.200;2022-09-01T15:12:30;13.73;;;5.85;;
35909;SDS011;22004;49.120;-0.200;2022-09-01T15:14:59;15.60;;;6.13;;
35909;SDS011;22004;49.120;-0.200;2022-09-01T15:17:25;12.68;;;6.10;;
35909;SDS011;22004;49.120;-0.200;2022-09-01T15:19:52;12.80;;;6.97;;
35909;SDS011;22004;49.120;-0.200;2022-09-01T15:22:18;10.70;;;5.47;;
35909;SDS011;22004;49.120;-0.200;2022-09-01T15:24:44;15.43;;;6.80;;
35909;SDS011;22004;49.120;-0.200;2022-09-01T15:27:10;15.18;;;6.32;;
35909;SDS011;22004;49.120;-0.200;2022-09-01T15:29:36;14.30;;;6.53;;
35909;SDS011;22004;49.120;-0.200;2022-09-01T15:32:08;10.50;;;5.93;;
35909;SDS011;22004;49.120;-0.200;2022-09-01T15:34:35;14.13;;;6.13;;
35909;SDS011;22004;49.120;-0.200;2022-09-01T15:37:00;15.98;;;7.00;;
35909;SDS011;22004;49.120;-0.200;2022-09-01T15:39:25;15.32;;;7.60;;
35909;SDS011;22004;49.120;-0.200;2022-09-01T15:41:51;13.25;;;7.38;;
35909;SDS011;22004;49.120;-0.200;2022-09-01T15:44:16;16.00;;;7.30;;
35909;SDS011;22004;49.120;-0.200;2022-09-01T15:46:41;17.42;;;7.47;;
35909;SDS011;22004;49.120;-0.200;2022-09-01T15:49:08;15.57;;;7.80;;
35909;SDS011;22004;49.120;-0.200;2022-09-01T15:51:38;18.23;;;7.22;;
35909;SDS011;22004;49.120;-0.200;2022-09-01T15:54:06;17.83;;;8.10;;
35909;SDS011;22004;49.120;-0.200;2022-09-01T15:56:32;17.15;;;7.15;;
35909;SDS011;22004;49.120;-0.200;2022-09-01T15:58:57;25.33;;;8.70;;
35909;SDS011;22004;49.120;-0.200;2022-09-01T16:01:24;19.88;;;8.20;;
35909;SDS011;22004;49.120;-0.200;2022-09-01T16:03:50;14.10;;;8.80;;